createdAt,value
2018-04-22T00:01:12.023Z,27.80
2018-04-22T00:03:40.369Z,32.87
2018-04-22T00:06:08.728Z,27.40
2018-04-22T00:08:37.156Z,28.43
2018-04-22T00:11:04.728Z,24.93
2018-04-22T00:13:32.285Z,28.37
2018-04-22T00:16:01.755Z,28.50
2018-04-22T00:18:31.120Z,22.80
2018-04-22T00:20:59.361Z,30.70
2018-04-22T00:23:26.925Z,30.27
2018-04-22T00:25:54.830Z,30.13
2018-04-22T00:28:23.153Z,26.67
2018-04-22T00:30:51.482Z,28.70
2018-04-22T00:33:19.074Z,33.30
2018-04-22T00:35:46.646Z,27.20
2018-04-22T00:38:15.012Z,26.00
2018-04-22T00:40:43.349Z,26.67
2018-04-22T00:43:11.257Z,29.87
2018-04-22T00:45:38.822Z,20.37
2018-04-22T00:48:06.371Z,24.73
2018-04-22T00:50:33.999Z,24.70
2018-04-22T00:53:01.566Z,20.30
2018-04-22T00:55:29.749Z,25.70
2018-04-22T00:57:58.528Z,23.83
2018-04-22T01:00:27.838Z,25.80
2018-04-22T01:02:56.166Z,23.10
2018-04-22T01:05:23.841Z,25.67
2018-04-22T01:07:51.402Z,20.53
2018-04-22T01:10:19.725Z,28.03
2018-04-22T01:12:48.311Z,21.70
2018-04-22T01:15:15.877Z,27.40
2018-04-22T01:17:43.477Z,22.70
2018-04-22T01:20:11.039Z,22.00
2018-04-22T01:22:38.610Z,23.33
2018-04-22T01:25:06.962Z,24.17
2018-04-22T01:27:35.324Z,20.07
2018-04-22T01:30:03.015Z,19.00
2018-04-22T01:32:30.773Z,21.07
2018-04-22T01:34:58.978Z,19.23
2018-04-22T01:37:27.315Z,19.90
2018-04-22T01:39:55.900Z,21.03
2018-04-22T01:42:23.477Z,22.37
2018-04-22T01:44:51.030Z,20.93
2018-04-22T01:47:19.421Z,20.63
2018-04-22T01:49:46.978Z,24.40
2018-04-22T01:52:14.558Z,19.37
2018-04-22T01:54:42.958Z,20.70
2018-04-22T01:57:10.526Z,21.37
2018-04-22T01:59:38.149Z,17.83
2018-04-22T02:02:05.789Z,19.83
2018-04-22T02:04:37.683Z,18.83
2018-04-22T02:07:07.045Z,20.63
2018-04-22T02:09:34.608Z,20.40
2018-04-22T02:12:03.051Z,18.43
2018-04-22T02:14:31.421Z,26.00
2018-04-22T02:17:00.516Z,19.37
2018-04-22T02:19:29.782Z,18.40
2018-04-22T02:21:58.993Z,17.67
2018-04-22T02:24:26.598Z,30.20
2018-04-22T02:26:54.996Z,20.20
2018-04-22T02:29:22.579Z,23.37
2018-04-22T02:31:50.234Z,18.63
2018-04-22T02:34:19.372Z,25.30
2018-04-22T02:36:46.949Z,16.73
2018-04-22T02:39:16.261Z,19.43
2018-04-22T02:41:43.814Z,16.77
2018-04-22T02:44:12.720Z,19.27
2018-04-22T02:46:40.328Z,18.90
2018-04-22T02:49:07.938Z,20.13
2018-04-22T02:51:36.295Z,16.07
2018-04-22T02:54:05.605Z,18.20
2018-04-22T02:56:33.166Z,15.93
2018-04-22T02:59:00.817Z,21.10
2018-04-22T03:01:28.702Z,16.50
2018-04-22T03:03:57.110Z,14.60
2018-04-22T03:06:24.703Z,17.93
2018-04-22T03:08:53.081Z,16.73
2018-04-22T03:11:21.478Z,20.20
2018-04-22T03:13:49.052Z,24.20
2018-04-22T03:16:16.638Z,20.33
2018-04-22T03:18:44.519Z,24.27
2018-04-22T03:21:12.074Z,17.70
2018-04-22T03:23:39.652Z,17.07
2018-04-22T03:26:08.007Z,16.20
2018-04-22T03:28:35.541Z,14.70
2018-04-22T03:31:03.199Z,18.00
2018-04-22T03:33:31.770Z,17.20
2018-04-22T03:36:01.123Z,13.87
2018-04-22T03:38:29.501Z,16.43
2018-04-22T03:40:57.885Z,14.47
2018-04-22T03:43:25.416Z,15.57
2018-04-22T03:45:52.968Z,18.90
2018-04-22T03:48:20.612Z,23.73
2018-04-22T03:50:48.238Z,15.83
2018-04-22T03:53:16.614Z,17.07
2018-04-22T03:55:44.178Z,14.20
2018-04-22T03:58:11.744Z,15.30
2018-04-22T04:00:39.336Z,16.30
2018-04-22T04:03:06.942Z,16.53
2018-04-22T04:05:34.503Z,16.93
2018-04-22T04:08:02.860Z,18.70
2018-04-22T04:10:31.789Z,16.63
2018-04-22T04:13:01.141Z,14.13
2018-04-22T04:15:29.394Z,16.33
2018-04-22T04:21:20.265Z,13.40
2018-04-22T04:27:25.099Z,14.10
2018-04-22T04:29:52.676Z,21.90
2018-04-22T04:32:22.034Z,24.33
2018-04-22T04:34:49.714Z,16.50
2018-04-22T04:37:17.238Z,13.63
2018-04-22T04:39:44.835Z,16.47
2018-04-22T04:42:13.177Z,12.83
2018-04-22T04:44:41.543Z,17.43
2018-04-22T04:47:09.110Z,15.37
2018-04-22T04:49:36.743Z,11.93
2018-04-22T04:52:04.361Z,16.90
2018-04-22T04:54:32.695Z,12.27
2018-04-22T04:57:02.242Z,17.20
2018-04-22T04:59:30.831Z,16.30
2018-04-22T05:01:59.616Z,17.70
2018-04-22T05:04:27.203Z,13.80
2018-04-22T05:06:55.564Z,26.33
2018-04-22T05:09:23.152Z,17.10
2018-04-22T05:11:50.713Z,20.07
2018-04-22T05:14:19.333Z,18.60
2018-04-22T05:16:47.533Z,16.77
2018-04-22T05:19:15.177Z,14.30
2018-04-22T05:21:42.778Z,16.73
2018-04-22T05:24:10.357Z,17.80
2018-04-22T05:26:38.246Z,18.30
2018-04-22T05:29:05.839Z,20.30
2018-04-22T05:31:35.279Z,18.30
2018-04-22T05:34:02.955Z,17.03
2018-04-22T05:36:31.738Z,13.97
2018-04-22T05:38:59.647Z,17.50
2018-04-22T05:41:27.302Z,15.80
2018-04-22T05:43:54.917Z,12.70
2018-04-22T05:46:22.828Z,14.87
2018-04-22T05:48:50.395Z,18.63
2018-04-22T05:51:18.064Z,15.00
2018-04-22T05:53:45.723Z,16.93
2018-04-22T05:56:13.288Z,15.83
2018-04-22T05:58:40.846Z,14.70
2018-04-22T06:01:08.424Z,14.93
2018-04-22T06:03:36.028Z,15.60
2018-04-22T06:06:03.666Z,12.90
2018-04-22T06:08:31.296Z,18.63
2018-04-22T06:11:00.176Z,14.97
2018-04-22T06:13:30.334Z,14.67
2018-04-22T06:15:57.951Z,14.53
2018-04-22T06:18:26.165Z,14.83
2018-04-22T06:20:54.501Z,12.00
2018-04-22T06:23:22.107Z,14.03
2018-04-22T06:25:49.793Z,14.20
2018-04-22T06:28:17.498Z,13.53
2018-04-22T06:30:45.135Z,13.40
2018-04-22T06:33:12.715Z,21.53
2018-04-22T06:35:40.300Z,13.97
2018-04-22T06:38:07.897Z,9.17
2018-04-22T06:40:35.516Z,12.10
2018-04-22T06:43:03.095Z,9.63
2018-04-22T06:45:31.046Z,9.53
2018-04-22T06:47:59.682Z,12.27
2018-04-22T06:50:27.334Z,9.53
2018-04-22T06:52:54.991Z,14.80
2018-04-22T06:55:23.777Z,10.63
2018-04-22T06:57:51.409Z,9.33
2018-04-22T07:00:19.094Z,11.63
2018-04-22T07:02:46.692Z,8.20
2018-04-22T07:05:15.844Z,11.40
2018-04-22T07:07:43.968Z,10.20
2018-04-22T07:10:11.629Z,9.13
2018-04-22T07:12:39.301Z,12.40
2018-04-22T07:15:07.158Z,7.47
2018-04-22T07:17:34.815Z,13.43
2018-04-22T07:20:03.503Z,8.57
2018-04-22T07:22:31.337Z,8.27
2018-04-22T07:25:00.531Z,7.07
2018-04-22T07:27:28.972Z,9.97
2018-04-22T07:29:57.373Z,9.53
2018-04-22T07:32:25.888Z,9.50
2018-04-22T07:34:54.378Z,8.60
2018-04-22T07:37:22.018Z,8.77
2018-04-22T07:39:49.721Z,12.17
2018-04-22T07:42:17.318Z,9.83
2018-04-22T07:47:38.371Z,9.23
2018-04-22T07:50:05.962Z,7.67
2018-04-22T07:52:34.330Z,12.10
2018-04-22T07:55:02.711Z,9.00
2018-04-22T07:57:30.940Z,11.03
2018-04-22T07:59:59.779Z,12.40
2018-04-22T08:02:29.813Z,11.87
2018-04-22T08:04:57.754Z,12.90
2018-04-22T08:07:25.507Z,21.60
2018-04-22T08:09:54.008Z,8.30
2018-04-22T08:12:21.838Z,8.50
2018-04-22T08:14:49.398Z,9.00
2018-04-22T08:17:16.955Z,10.93
2018-04-22T08:19:46.468Z,10.47
2018-04-22T08:22:14.046Z,9.10
2018-04-22T08:24:42.379Z,9.30
2018-04-22T08:27:09.982Z,12.00
2018-04-22T08:29:37.624Z,11.23
2018-04-22T08:32:05.398Z,11.67
2018-04-22T08:34:34.940Z,9.93
2018-04-22T08:37:06.398Z,10.17
2018-04-22T08:39:34.002Z,10.83
2018-04-22T08:42:02.449Z,16.80
2018-04-22T08:44:31.561Z,10.27
2018-04-22T08:47:01.131Z,12.50
2018-04-22T08:49:30.610Z,15.83
2018-04-22T08:52:01.157Z,12.90
2018-04-22T08:54:29.479Z,9.43
2018-04-22T08:56:57.022Z,12.90
2018-04-22T08:59:25.418Z,10.27
2018-04-22T09:01:53.121Z,11.40
2018-04-22T09:04:20.728Z,14.13
2018-04-22T09:06:48.402Z,12.80
2018-04-22T09:09:16.128Z,9.93
2018-04-22T09:11:43.725Z,13.60
2018-04-22T09:14:12.051Z,7.67
2018-04-22T09:16:39.661Z,8.93
2018-04-22T09:19:07.297Z,10.53
2018-04-22T09:21:35.283Z,10.43
2018-04-22T09:24:03.021Z,10.20
2018-04-22T09:26:31.681Z,13.53
2018-04-22T09:28:59.670Z,9.70
2018-04-22T09:31:28.600Z,11.63
2018-04-22T09:33:56.190Z,12.83
2018-04-22T09:36:27.224Z,8.30
2018-04-22T09:38:54.832Z,9.83
2018-04-22T09:41:22.398Z,9.27
2018-04-22T09:43:51.739Z,14.13
2018-04-22T09:46:19.323Z,8.30
2018-04-22T09:48:47.860Z,14.23
2018-04-22T09:51:16.400Z,12.13
2018-04-22T09:53:46.232Z,10.20
2018-04-22T09:56:14.843Z,10.20
2018-04-22T09:58:42.441Z,10.57
2018-04-22T10:01:10.993Z,9.67
2018-04-22T10:03:38.633Z,13.13
2018-04-22T10:06:06.566Z,13.33
2018-04-22T10:08:34.185Z,10.20
2018-04-22T10:11:01.876Z,7.10
2018-04-22T10:13:30.279Z,9.03
2018-04-22T10:15:59.795Z,14.53
2018-04-22T10:18:28.708Z,10.90
2018-04-22T10:20:56.328Z,7.43
2018-04-22T10:23:24.711Z,6.33
2018-04-22T10:25:52.431Z,7.07
2018-04-22T10:28:21.846Z,6.77
2018-04-22T10:30:54.738Z,6.10
2018-04-22T10:33:22.314Z,8.97
2018-04-22T10:35:50.224Z,7.13
2018-04-22T10:38:17.805Z,7.27
2018-04-22T10:40:45.485Z,8.00
2018-04-22T10:43:13.123Z,6.97
2018-04-22T10:45:40.693Z,5.00
2018-04-22T10:48:09.338Z,9.83
2018-04-22T10:50:37.673Z,13.13
2018-04-22T10:53:05.268Z,8.83
2018-04-22T10:55:33.171Z,8.23
2018-04-22T10:58:01.846Z,9.23
2018-04-22T11:00:29.641Z,8.83
2018-04-22T11:02:58.711Z,13.10
2018-04-22T11:05:27.243Z,12.13
2018-04-22T11:07:55.070Z,9.30
2018-04-22T11:10:22.686Z,7.13
2018-04-22T11:12:50.369Z,7.40
2018-04-22T11:15:19.014Z,10.07
2018-04-22T11:17:47.655Z,13.23
2018-04-22T11:20:17.005Z,7.10
2018-04-22T11:22:45.601Z,7.50
2018-04-22T11:25:13.953Z,13.83
2018-04-22T11:27:47.766Z,11.13
2018-04-22T11:30:19.141Z,7.00
2018-04-22T11:32:49.904Z,9.80
2018-04-22T11:35:17.724Z,12.03
2018-04-22T11:37:45.319Z,6.77
2018-04-22T11:40:12.951Z,7.93
2018-04-22T11:42:41.509Z,9.77
2018-04-22T11:45:09.934Z,7.00
2018-04-22T11:47:38.518Z,10.43
2018-04-22T11:50:06.077Z,9.00
2018-04-22T11:52:33.701Z,6.20
2018-04-22T11:55:01.338Z,11.23
2018-04-22T11:57:29.565Z,8.30
2018-04-22T11:59:59.574Z,9.60
2018-04-22T12:02:28.027Z,12.77
2018-04-22T12:05:02.519Z,11.10
2018-04-22T12:07:31.323Z,22.63
2018-04-22T12:10:00.164Z,8.13
2018-04-22T12:12:27.747Z,7.63
2018-04-22T12:14:55.381Z,11.23
2018-04-22T12:17:23.054Z,10.73
2018-04-22T12:19:50.935Z,7.80
2018-04-22T12:22:18.515Z,7.97
2018-04-22T12:24:47.041Z,8.70
2018-04-22T12:27:14.669Z,10.20
2018-04-22T12:29:43.134Z,7.20
2018-04-22T12:32:11.496Z,9.87
2018-04-22T12:34:39.042Z,7.57
2018-04-22T12:37:06.919Z,9.77
2018-04-22T12:39:34.618Z,10.30
2018-04-22T12:42:02.233Z,8.07
2018-04-22T12:44:30.709Z,7.67
2018-04-22T12:46:58.912Z,10.93
2018-04-22T12:49:29.262Z,10.00
2018-04-22T12:51:57.295Z,7.17
2018-04-22T12:54:25.809Z,8.13
2018-04-22T12:56:53.366Z,7.87
2018-04-22T12:59:21.759Z,8.43
2018-04-22T13:01:50.175Z,8.60
2018-04-22T13:04:19.816Z,4.97
2018-04-22T13:06:47.424Z,7.57
2018-04-22T13:09:15.008Z,8.13
2018-04-22T13:11:42.609Z,8.80
2018-04-22T13:14:10.340Z,9.60
2018-04-22T13:16:37.972Z,8.53
2018-04-22T13:19:06.525Z,9.37
2018-04-22T13:21:34.063Z,8.07
2018-04-22T13:24:02.739Z,9.73
2018-04-22T13:26:30.786Z,8.10
2018-04-22T13:28:58.678Z,5.60
2018-04-22T13:31:27.057Z,8.47
2018-04-22T13:33:54.655Z,9.53
2018-04-22T13:36:22.197Z,7.00
2018-04-22T13:38:49.818Z,7.80
2018-04-22T13:41:17.423Z,6.97
2018-04-22T13:43:45.050Z,7.13
2018-04-22T13:46:13.541Z,6.73
2018-04-22T13:48:41.105Z,7.50
2018-04-22T13:51:08.834Z,8.43
2018-04-22T13:53:36.396Z,6.00
2018-04-22T13:56:03.946Z,6.50
2018-04-22T13:58:31.844Z,11.70
2018-04-22T14:01:00.323Z,6.27
2018-04-22T14:03:28.626Z,8.30
2018-04-22T14:05:57.025Z,6.90
2018-04-22T14:08:25.079Z,4.87
2018-04-22T14:10:52.654Z,5.77
2018-04-22T14:13:20.222Z,7.37
2018-04-22T14:16:02.180Z,8.77
2018-04-22T14:18:30.744Z,7.43
2018-04-22T14:20:58.516Z,8.83
2018-04-22T14:23:27.021Z,8.73
2018-04-22T14:25:54.690Z,6.90
2018-04-22T14:28:28.214Z,7.50
2018-04-22T14:30:55.852Z,10.83
2018-04-22T14:33:23.401Z,8.17
2018-04-22T14:35:51.965Z,12.60
2018-04-22T14:38:19.511Z,4.77
2018-04-22T14:40:47.118Z,9.23
2018-04-22T14:43:14.765Z,10.10
2018-04-22T14:45:54.156Z,8.93
2018-04-22T14:48:22.545Z,9.30
2018-04-22T14:50:51.301Z,8.63
2018-04-22T14:53:18.892Z,7.10
2018-04-22T14:55:47.240Z,10.20
2018-04-22T14:58:14.795Z,11.40
2018-04-22T15:00:42.347Z,5.17
2018-04-22T15:03:10.922Z,9.07
2018-04-22T15:05:38.487Z,5.93
2018-04-22T15:08:06.183Z,9.07
2018-04-22T15:10:33.754Z,8.10
2018-04-22T15:13:02.082Z,5.40
2018-04-22T15:15:29.680Z,7.50
2018-04-22T15:17:59.193Z,6.80
2018-04-22T15:20:27.532Z,13.27
2018-04-22T15:22:56.943Z,7.00
2018-04-22T15:25:24.522Z,10.30
2018-04-22T15:27:52.139Z,7.27
2018-04-22T15:30:20.456Z,6.03
2018-04-22T15:32:48.765Z,6.47
2018-04-22T15:35:16.356Z,6.30
2018-04-22T15:37:43.965Z,9.53
2018-04-22T15:40:11.687Z,7.73
2018-04-22T15:42:42.235Z,8.13
2018-04-22T15:45:09.770Z,10.13
2018-04-22T15:47:37.351Z,7.20
2018-04-22T15:50:04.892Z,6.43
2018-04-22T15:52:32.513Z,5.80
2018-04-22T15:55:00.821Z,8.33
2018-04-22T15:57:28.391Z,8.27
2018-04-22T15:59:55.954Z,10.33
2018-04-22T16:02:23.926Z,6.30
2018-04-22T16:04:51.468Z,9.87
2018-04-22T16:07:19.043Z,14.93
2018-04-22T16:09:46.613Z,10.00
2018-04-22T16:12:14.162Z,8.97
2018-04-22T16:14:42.568Z,6.50
2018-04-22T16:17:10.159Z,18.03
2018-04-22T16:19:37.713Z,9.10
2018-04-22T16:22:05.470Z,13.20
2018-04-22T16:24:33.100Z,13.77
2018-04-22T16:27:00.656Z,11.67
2018-04-22T16:29:28.188Z,9.10
2018-04-22T16:31:55.738Z,7.13
2018-04-22T16:34:23.333Z,12.33
2018-04-22T16:36:50.970Z,13.07
2018-04-22T16:39:18.569Z,6.83
2018-04-22T16:41:46.220Z,11.70
2018-04-22T16:44:13.796Z,9.80
2018-04-22T16:46:41.494Z,12.27
2018-04-22T16:49:09.028Z,7.60
2018-04-22T16:51:36.603Z,8.03
2018-04-22T16:54:04.926Z,7.23
2018-04-22T16:56:32.457Z,6.77
2018-04-22T16:59:00.781Z,9.27
2018-04-22T17:01:28.300Z,9.90
2018-04-22T17:03:56.603Z,5.50
2018-04-22T17:06:25.032Z,11.00
2018-04-22T17:08:52.589Z,10.83
2018-04-22T17:11:20.118Z,12.00
2018-04-22T17:13:47.670Z,8.70
2018-04-22T17:16:15.187Z,7.63
2018-04-22T17:18:43.725Z,9.10
2018-04-22T17:21:11.396Z,8.37
2018-04-22T17:23:38.961Z,12.10
2018-04-22T17:26:06.512Z,13.90
2018-04-22T17:28:34.067Z,9.90
2018-04-22T17:31:01.652Z,8.97
2018-04-22T17:33:29.395Z,12.23
2018-04-22T17:35:56.971Z,8.00
2018-04-22T17:38:24.511Z,9.10
2018-04-22T17:40:52.191Z,10.17
2018-04-22T17:43:19.758Z,14.73
2018-04-22T17:45:47.338Z,9.70
2018-04-22T17:48:14.964Z,12.20
2018-04-22T17:50:42.590Z,10.40
2018-04-22T17:53:10.145Z,10.37
2018-04-22T17:55:37.679Z,13.57
2018-04-22T17:58:06.037Z,16.80
2018-04-22T18:00:33.623Z,10.10
2018-04-22T18:03:02.570Z,9.97
2018-04-22T18:05:31.270Z,10.73
2018-04-22T18:07:59.788Z,11.30
2018-04-22T18:10:28.089Z,10.57
2018-04-22T18:12:55.661Z,16.30
2018-04-22T18:15:23.228Z,12.43
2018-04-22T18:17:50.769Z,11.13
2018-04-22T18:20:18.394Z,13.23
2018-04-22T18:22:46.865Z,12.80
2018-04-22T18:25:15.748Z,14.50
2018-04-22T18:27:43.344Z,19.90
2018-04-22T18:30:11.671Z,17.10
2018-04-22T18:32:39.293Z,17.53
2018-04-22T18:35:06.850Z,28.60
2018-04-22T18:37:35.566Z,16.67
2018-04-22T18:40:03.104Z,11.33
2018-04-22T18:42:30.736Z,15.70
2018-04-22T18:44:59.124Z,20.07
2018-04-22T18:47:27.460Z,14.50
2018-04-22T18:49:55.053Z,15.40
2018-04-22T18:52:22.596Z,12.00
2018-04-22T18:54:50.339Z,20.43
2018-04-22T18:57:17.875Z,12.60
2018-04-22T18:59:46.272Z,16.40
2018-04-22T19:02:14.571Z,13.33
2018-04-22T19:04:42.160Z,15.20
2018-04-22T19:07:11.379Z,20.40
2018-04-22T19:09:39.708Z,17.20
2018-04-22T19:12:07.275Z,17.70
2018-04-22T19:14:35.853Z,16.93
2018-04-22T19:17:05.401Z,19.13
2018-04-22T19:19:33.016Z,16.37
2018-04-22T19:22:00.564Z,22.70
2018-04-22T19:24:28.233Z,25.17
2018-04-22T19:26:55.912Z,18.63
2018-04-22T19:29:23.427Z,14.37
2018-04-22T19:31:51.111Z,15.37
2018-04-22T19:34:19.599Z,15.87
2018-04-22T19:36:47.158Z,20.83
2018-04-22T19:39:14.733Z,16.60
2018-04-22T19:41:43.277Z,15.00
2018-04-22T19:44:10.848Z,13.30
2018-04-22T19:46:39.214Z,17.83
2018-04-22T19:49:06.837Z,14.87
2018-04-22T19:51:34.473Z,16.53
2018-04-22T19:54:02.097Z,16.63
2018-04-22T19:56:29.647Z,16.67
2018-04-22T19:58:57.987Z,16.47
2018-04-22T20:01:25.603Z,14.07
2018-04-22T20:03:53.147Z,19.97
2018-04-22T20:06:21.514Z,19.33
2018-04-22T20:08:49.852Z,14.00
2018-04-22T20:11:17.502Z,24.60
2018-04-22T20:13:45.042Z,20.33
2018-04-22T20:16:13.516Z,17.87
2018-04-22T20:18:41.093Z,13.37
2018-04-22T20:21:08.653Z,23.57
2018-04-22T20:23:36.216Z,20.27
2018-04-22T20:26:03.787Z,15.43
2018-04-22T20:28:31.373Z,21.10
2018-04-22T20:30:58.951Z,19.50
2018-04-22T20:33:27.172Z,17.10
2018-04-22T20:35:54.716Z,19.93
2018-04-22T20:38:22.257Z,17.30
2018-04-22T20:40:50.608Z,19.33
2018-04-22T20:43:18.187Z,20.50
2018-04-22T20:45:45.759Z,24.97
2018-04-22T20:48:13.317Z,17.07
2018-04-22T20:50:41.692Z,19.70
2018-04-22T20:53:10.045Z,15.10
2018-04-22T20:55:37.578Z,13.20
2018-04-22T20:58:05.135Z,15.47
2018-04-22T21:00:32.709Z,14.80
2018-04-22T21:03:00.281Z,14.57
2018-04-22T21:05:27.830Z,21.43
2018-04-22T21:07:55.497Z,16.17
2018-04-22T21:10:23.035Z,16.90
2018-04-22T21:12:50.619Z,16.73
2018-04-22T21:15:19.140Z,24.50
2018-04-22T21:17:47.542Z,14.70
2018-04-22T21:20:15.526Z,15.70
2018-04-22T21:22:43.067Z,17.23
2018-04-22T21:25:10.624Z,14.70
2018-04-22T21:27:38.198Z,13.70
2018-04-22T21:30:05.732Z,16.07
2018-04-22T21:32:33.345Z,17.10
2018-04-22T21:35:00.906Z,14.00
2018-04-22T21:37:28.884Z,13.57
2018-04-22T21:39:56.419Z,10.73
2018-04-22T21:42:23.941Z,15.87
2018-04-22T21:44:52.295Z,12.80
2018-04-22T21:47:19.859Z,19.10
2018-04-22T21:49:47.430Z,18.67
2018-04-22T21:52:16.493Z,19.87
2018-04-22T21:54:44.017Z,11.47
2018-04-22T21:57:12.525Z,10.60
2018-04-22T21:59:40.065Z,12.30
2018-04-22T22:02:07.637Z,13.27
2018-04-22T22:04:35.164Z,10.80
2018-04-22T22:07:03.555Z,13.43
2018-04-22T22:09:31.889Z,11.77
2018-04-22T22:11:59.425Z,13.67
2018-04-22T22:14:27.281Z,10.57
2018-04-22T22:16:55.749Z,13.50
2018-04-22T22:19:23.650Z,15.00
2018-04-22T22:21:51.175Z,12.00
2018-04-22T22:24:19.069Z,11.97
2018-04-22T22:26:46.600Z,11.43
2018-04-22T22:29:14.147Z,11.30
2018-04-22T22:31:41.797Z,10.87
2018-04-22T22:34:10.181Z,14.40
2018-04-22T22:36:38.532Z,10.87
2018-04-22T22:39:06.083Z,15.57
2018-04-22T22:41:33.958Z,8.00
2018-04-22T22:44:02.251Z,9.73
2018-04-22T22:46:29.793Z,8.40
2018-04-22T22:48:57.389Z,7.57
2018-04-22T22:51:25.876Z,8.60
2018-04-22T22:53:53.441Z,9.60
2018-04-22T22:56:20.980Z,10.27
2018-04-22T22:58:49.327Z,8.30
2018-04-22T23:01:16.859Z,12.53
2018-04-22T23:03:45.585Z,12.13
2018-04-22T23:06:13.151Z,10.47
2018-04-22T23:08:40.678Z,11.30
2018-04-22T23:11:08.242Z,17.20
2018-04-22T23:13:35.795Z,12.03
2018-04-22T23:16:03.475Z,9.53
2018-04-22T23:18:31.085Z,12.30
2018-04-22T23:20:58.662Z,16.30
2018-04-22T23:23:26.276Z,7.23
2018-04-22T23:25:54.579Z,11.70
2018-04-22T23:28:23.873Z,10.83
2018-04-22T23:30:53.137Z,7.80
2018-04-22T23:33:26.188Z,12.10
2018-04-22T23:35:54.648Z,8.20
2018-04-22T23:38:23.029Z,9.77
2018-04-22T23:40:51.405Z,8.93
2018-04-22T23:43:19.770Z,8.20
2018-04-22T23:45:50.183Z,11.43
2018-04-22T23:48:17.711Z,9.20
2018-04-22T23:50:47.250Z,9.10
2018-04-22T23:53:15.929Z,12.80
2018-04-22T23:55:43.545Z,9.40
2018-04-22T23:58:11.094Z,12.97
